createdAt,value
2023-03-13T00:01:32.700Z,13.73
2023-03-13T00:06:37.524Z,13.64
2023-03-13T00:11:39.993Z,13.62
2023-03-13T00:16:42.577Z,13.48
2023-03-13T00:21:44.878Z,13.49
2023-03-13T00:26:47.175Z,13.50
2023-03-13T00:31:49.502Z,13.71
2023-03-13T00:36:52.358Z,13.67
2023-03-13T00:41:54.550Z,13.92
2023-03-13T00:46:56.830Z,14.10
2023-03-13T00:51:59.232Z,14.07
2023-03-13T00:57:01.633Z,13.98
2023-03-13T01:02:03.914Z,14.10
2023-03-13T01:07:08.017Z,13.74
2023-03-13T01:12:10.411Z,13.79
2023-03-13T01:17:12.676Z,13.64
2023-03-13T01:22:15.036Z,13.49
2023-03-13T01:27:17.195Z,13.48
2023-03-13T01:32:19.418Z,13.42
2023-03-13T01:37:21.702Z,13.45
2023-03-13T01:42:23.905Z,13.23
2023-03-13T01:47:26.171Z,13.06
2023-03-13T01:52:44.075Z,12.96
2023-03-13T01:57:55.534Z,13.16
2023-03-13T02:03:06.997Z,13.07
2023-03-13T02:08:19.545Z,13.03
2023-03-13T02:13:22.113Z,12.97
2023-03-13T02:18:26.005Z,12.71
2023-03-13T02:23:40.269Z,12.58
2023-03-13T02:28:43.312Z,11.95
2023-03-13T02:33:49.214Z,11.92
2023-03-13T02:39:03.413Z,12.15
2023-03-13T02:44:07.036Z,12.40
2023-03-13T02:49:25.919Z,12.15
2023-03-13T02:54:38.412Z,12.61
2023-03-13T02:59:41.089Z,12.30
2023-03-13T03:04:43.459Z,12.57
2023-03-13T03:09:47.000Z,12.47
2023-03-13T03:14:53.945Z,12.28
2023-03-13T03:19:57.583Z,12.54
2023-03-13T03:25:00.436Z,12.43
2023-03-13T03:30:06.692Z,12.50
2023-03-13T03:35:10.763Z,12.51
2023-03-13T03:40:13.938Z,12.70
2023-03-13T03:45:16.266Z,12.62
2023-03-13T03:50:18.784Z,12.96
2023-03-13T03:55:30.222Z,12.65
2023-03-13T04:00:32.751Z,12.70
2023-03-13T04:05:35.089Z,12.80
2023-03-13T04:10:37.396Z,12.95
2023-03-13T04:15:41.285Z,12.90
2023-03-13T04:20:46.011Z,13.05
2023-03-13T04:25:48.889Z,12.85
2023-03-13T04:30:51.389Z,12.97
2023-03-13T04:36:14.378Z,12.97
2023-03-13T04:41:35.301Z,12.83
2023-03-13T04:46:55.363Z,12.90
2023-03-13T04:52:16.445Z,12.88
2023-03-13T04:57:27.730Z,12.98
2023-03-13T05:02:38.277Z,12.99
2023-03-13T05:07:58.616Z,12.83
2023-03-13T05:13:33.204Z,12.94
2023-03-13T05:19:01.670Z,12.83
2023-03-13T05:24:37.052Z,12.90
2023-03-13T05:29:52.670Z,12.95
2023-03-13T05:35:09.913Z,13.03
2023-03-13T05:40:36.312Z,12.91
2023-03-13T05:45:49.743Z,13.03
2023-03-13T05:51:08.344Z,12.90
2023-03-13T05:56:39.024Z,13.21
2023-03-13T06:02:01.435Z,12.98
2023-03-13T06:07:10.731Z,12.89
2023-03-13T06:12:13.359Z,13.02
2023-03-13T06:17:15.694Z,13.07
2023-03-13T06:22:18.437Z,13.07
2023-03-13T06:27:20.703Z,13.25
2023-03-13T06:32:23.083Z,13.34
2023-03-13T06:37:25.510Z,13.33
2023-03-13T06:42:27.727Z,13.64
2023-03-13T06:47:32.426Z,13.79
2023-03-13T06:52:43.491Z,13.76
2023-03-13T06:57:51.846Z,13.69
2023-03-13T07:02:54.144Z,13.99
2023-03-13T07:07:56.405Z,14.22
2023-03-13T07:12:58.640Z,14.34
2023-03-13T07:18:00.891Z,14.33
2023-03-13T07:23:03.443Z,14.57
2023-03-13T07:28:05.833Z,14.92
2023-03-13T07:33:08.060Z,14.87
2023-03-13T07:38:11.167Z,15.08
2023-03-13T07:43:13.579Z,15.13
2023-03-13T07:48:15.843Z,15.48
2023-03-13T07:53:21.347Z,15.63
2023-03-13T07:58:24.843Z,15.79
2023-03-13T08:03:28.825Z,15.90
2023-03-13T08:08:31.655Z,15.79
2023-03-13T08:13:35.717Z,15.87
2023-03-13T08:18:41.126Z,16.09
2023-03-13T08:23:43.701Z,15.94
2023-03-13T08:28:48.400Z,15.84
2023-03-13T08:33:51.288Z,16.40
2023-03-13T08:38:57.717Z,16.47
2023-03-13T08:44:00.060Z,17.11
2023-03-13T08:49:03.948Z,17.27
2023-03-13T08:54:06.687Z,17.56
2023-03-13T08:59:09.041Z,17.69
2023-03-13T09:04:11.422Z,18.08
2023-03-13T09:09:14.592Z,17.79
2023-03-13T09:14:16.859Z,17.97
2023-03-13T09:19:19.145Z,18.10
2023-03-13T09:24:21.404Z,18.43
2023-03-13T09:29:23.691Z,18.69
2023-03-13T09:34:26.041Z,18.51
2023-03-13T09:39:28.384Z,18.83
2023-03-13T09:45:02.297Z,18.97
2023-03-13T09:50:18.738Z,19.71
2023-03-13T09:55:32.651Z,19.33
2023-03-13T10:00:41.891Z,19.37
2023-03-13T10:05:50.330Z,19.29
2023-03-13T10:11:30.196Z,19.29
2023-03-13T10:17:00.636Z,20.18
2023-03-13T10:22:08.904Z,19.33
2023-03-13T10:27:12.417Z,19.74
2023-03-13T10:32:17.412Z,20.16
2023-03-13T10:37:29.772Z,20.65
2023-03-13T10:42:42.458Z,20.78
2023-03-13T10:47:44.886Z,20.78
2023-03-13T10:52:50.640Z,21.27
2023-03-13T10:58:00.308Z,21.33
2023-03-13T11:03:14.623Z,20.62
2023-03-13T11:08:20.227Z,21.27
2023-03-13T11:13:43.502Z,21.09
2023-03-13T11:19:36.293Z,21.77
2023-03-13T11:25:41.607Z,22.54
2023-03-13T11:31:23.694Z,22.36
2023-03-13T11:36:53.810Z,22.36
2023-03-13T11:42:29.205Z,23.03
2023-03-13T11:47:43.431Z,22.80
2023-03-13T11:53:24.528Z,22.86
2023-03-13T11:58:51.539Z,23.59
2023-03-13T12:04:05.385Z,23.06
2023-03-13T12:09:28.483Z,23.59
2023-03-13T12:14:43.175Z,23.64
2023-03-13T12:19:59.211Z,23.65
2023-03-13T12:25:21.431Z,23.76
2023-03-13T12:30:29.701Z,24.14
2023-03-13T12:35:35.902Z,23.23
2023-03-13T12:40:51.273Z,24.08
2023-03-13T12:45:59.637Z,23.40
2023-03-13T12:51:53.029Z,23.70
2023-03-13T12:57:42.149Z,23.77
2023-03-13T13:02:44.591Z,23.18
2023-03-13T13:07:55.927Z,23.27
2023-03-13T13:13:25.754Z,23.16
2023-03-13T13:18:33.810Z,23.80
2023-03-13T13:23:46.584Z,23.78
2023-03-13T13:28:48.844Z,23.98
2023-03-13T13:33:51.032Z,24.47
2023-03-13T13:38:53.891Z,25.17
2023-03-13T13:44:24.079Z,23.96
2023-03-13T13:49:36.122Z,23.64
2023-03-13T13:54:45.594Z,23.10
2023-03-13T13:59:52.714Z,23.72
2023-03-13T14:05:17.904Z,24.31
2023-03-13T14:10:44.076Z,24.09
2023-03-13T14:15:54.956Z,24.20
2023-03-13T14:21:04.412Z,24.32
2023-03-13T14:26:28.012Z,23.95
2023-03-13T14:31:36.814Z,24.98
2023-03-13T14:37:14.952Z,24.44
2023-03-13T14:42:20.080Z,24.13
2023-03-13T14:47:31.711Z,24.28
2023-03-13T14:52:34.750Z,24.45
2023-03-13T14:57:37.153Z,24.33
2023-03-13T15:02:39.482Z,24.11
2023-03-13T15:07:49.209Z,23.99
2023-03-13T15:12:52.006Z,24.52
2023-03-13T15:17:54.304Z,24.48
2023-03-13T15:22:56.589Z,24.27
2023-03-13T15:27:58.823Z,24.13
2023-03-13T15:33:01.345Z,24.13
2023-03-13T15:38:03.824Z,23.78
2023-03-13T15:43:06.399Z,23.47
2023-03-13T15:48:31.373Z,23.58
2023-03-13T15:53:35.923Z,23.37
2023-03-13T15:58:38.320Z,23.37
2023-03-13T16:03:41.622Z,23.79
2023-03-13T16:08:45.088Z,24.08
2023-03-13T16:13:47.222Z,23.99
2023-03-13T16:18:51.194Z,23.90
2023-03-13T16:23:53.995Z,23.82
2023-03-13T16:28:57.850Z,23.50
2023-03-13T16:34:01.261Z,23.40
2023-03-13T16:39:11.333Z,23.52
2023-03-13T16:44:13.555Z,23.35
2023-03-13T16:49:16.250Z,22.98
2023-03-13T16:54:18.841Z,22.30
2023-03-13T16:59:21.723Z,22.72
2023-03-13T17:04:24.019Z,22.59
2023-03-13T17:09:26.761Z,22.30
2023-03-13T17:14:28.992Z,22.24
2023-03-13T17:19:31.404Z,22.10
2023-03-13T17:24:33.839Z,21.55
2023-03-13T17:29:36.105Z,21.52
2023-03-13T17:34:39.252Z,21.31
2023-03-13T17:39:41.631Z,21.17
2023-03-13T17:44:43.919Z,20.83
2023-03-13T17:49:46.229Z,21.15
2023-03-13T17:54:48.341Z,20.99
2023-03-13T17:59:50.579Z,21.09
2023-03-13T18:04:53.727Z,20.80
2023-03-13T18:09:56.066Z,20.92
2023-03-13T18:14:58.321Z,20.51
2023-03-13T18:20:00.675Z,20.49
2023-03-13T18:25:02.943Z,20.58
2023-03-13T18:30:18.688Z,20.32
2023-03-13T18:35:21.022Z,20.33
2023-03-13T18:40:27.979Z,20.58
2023-03-13T18:45:30.331Z,20.23
2023-03-13T18:50:33.042Z,19.95
2023-03-13T18:55:35.534Z,19.64
2023-03-13T19:00:38.086Z,20.23
2023-03-13T19:05:40.301Z,17.75
2023-03-13T19:10:42.609Z,17.18
2023-03-13T19:15:45.007Z,16.43
2023-03-13T19:20:47.504Z,15.49
2023-03-13T19:25:49.759Z,15.52
2023-03-13T19:30:52.021Z,15.43
2023-03-13T19:35:54.354Z,15.68
2023-03-13T19:40:56.530Z,15.12
2023-03-13T19:45:58.885Z,14.81
2023-03-13T19:51:01.054Z,15.15
2023-03-13T19:56:12.019Z,15.15
2023-03-13T20:01:17.563Z,15.17
2023-03-13T20:06:28.411Z,15.26
2023-03-13T20:11:31.690Z,14.83
2023-03-13T20:16:35.343Z,14.60
2023-03-13T20:21:43.026Z,14.57
2023-03-13T20:26:45.272Z,14.60
2023-03-13T20:31:47.416Z,14.67
2023-03-13T20:36:50.063Z,14.23
2023-03-13T20:41:54.543Z,14.16
2023-03-13T20:46:56.884Z,13.90
2023-03-13T20:51:59.284Z,13.96
2023-03-13T20:57:02.464Z,15.02
2023-03-13T21:02:06.600Z,15.33
2023-03-13T21:07:08.820Z,14.48
2023-03-13T21:12:11.120Z,14.78
2023-03-13T21:17:13.527Z,14.55
2023-03-13T21:22:15.902Z,15.12
2023-03-13T21:27:18.226Z,15.30
2023-03-13T21:32:20.585Z,14.32
2023-03-13T21:37:23.813Z,14.05
2023-03-13T21:42:26.372Z,14.46
2023-03-13T21:47:28.590Z,13.86
2023-03-13T21:52:33.247Z,13.73
2023-03-13T21:57:36.759Z,14.11
2023-03-13T22:02:39.063Z,12.71
2023-03-13T22:07:41.325Z,12.91
2023-03-13T22:12:43.571Z,13.10
2023-03-13T22:17:45.815Z,12.65
2023-03-13T22:22:48.128Z,12.89
2023-03-13T22:27:50.418Z,12.70
2023-03-13T22:32:52.584Z,12.65
2023-03-13T22:37:54.797Z,12.61
2023-03-13T22:42:56.937Z,12.40
2023-03-13T22:47:59.213Z,12.63
2023-03-13T22:53:02.076Z,12.36
2023-03-13T22:58:05.515Z,12.69
2023-03-13T23:03:07.764Z,12.23
2023-03-13T23:08:10.523Z,12.22
2023-03-13T23:13:13.940Z,12.46
2023-03-13T23:18:16.184Z,12.44
2023-03-13T23:23:18.919Z,12.44
2023-03-13T23:28:21.211Z,12.30
2023-03-13T23:33:23.719Z,12.04
2023-03-13T23:38:26.006Z,12.45
2023-03-13T23:43:28.240Z,12.57
2023-03-13T23:48:30.559Z,12.63
2023-03-13T23:53:37.627Z,12.59
2023-03-13T23:58:40.363Z,12.47
